DAL7525 KPSP-KTUS
Flight info
| Callsign | DAL7525 |
|---|---|
| Flight time | 1h 1m |
| Altitude | 37000 |
| Route | HWRRD1 BLH J50 GBN DINGO6 |
| Aircraft | A320/M-SDE3FGHIRWY/LB1 |
Departure
| Time | 2026-05-07 00:46 |
|---|---|
| Airport | Palm Springs International Airport (KPSP) |
Arrival
| Time | 2026-05-07 01:47 |
|---|---|
| Airport | Tucson International Airport (KTUS) |
| Time | Latitude | Longitude | Altitude | Speed | Heading |
|---|---|---|---|---|---|
| 2026-05-07 00:13 | 33.82276 | -116.50591 | 418 ft | 0 kts | 294° |
| 2026-05-07 00:34 | 33.82269 | -116.50574 | 418 ft | 4 kts | 298° |
| 2026-05-07 00:34 | 33.82254 | -116.50548 | 412 ft | 4 kts | 322° |
| 2026-05-07 00:34 | 33.82237 | -116.50539 | 413 ft | 4 kts | 38° |
| 2026-05-07 00:34 | 33.82233 | -116.50542 | 414 ft | 0 kts | 53° |
| 2026-05-07 00:37 | 33.82235 | -116.50539 | 413 ft | 3 kts | 53° |
| 2026-05-07 00:38 | 33.82249 | -116.50516 | 412 ft | 3 kts | 53° |
| 2026-05-07 00:38 | 33.82261 | -116.50497 | 416 ft | 2 kts | 53° |
| 2026-05-07 00:38 | 33.82269 | -116.50485 | 408 ft | 1 kts | 53° |
| 2026-05-07 00:38 | 33.82272 | -116.50479 | 411 ft | 0 kts | 53° |
| 2026-05-07 00:39 | 33.82280 | -116.50467 | 414 ft | 6 kts | 53° |
| 2026-05-07 00:39 | 33.82321 | -116.50418 | 416 ft | 11 kts | 22° |
| 2026-05-07 00:39 | 33.82397 | -116.50459 | 416 ft | 14 kts | 320° |
| 2026-05-07 00:39 | 33.82481 | -116.50536 | 423 ft | 16 kts | 324° |
| 2026-05-07 00:40 | 33.82573 | -116.50617 | 419 ft | 17 kts | 323° |
| 2026-05-07 00:40 | 33.82666 | -116.50701 | 424 ft | 16 kts | 323° |
| 2026-05-07 00:40 | 33.82761 | -116.50786 | 427 ft | 18 kts | 323° |
| 2026-05-07 00:40 | 33.82868 | -116.50882 | 424 ft | 20 kts | 319° |
| 2026-05-07 00:41 | 33.82979 | -116.50991 | 432 ft | 22 kts | 323° |
| 2026-05-07 00:41 | 33.83110 | -116.51105 | 435 ft | 24 kts | 323° |
| 2026-05-07 00:41 | 33.83225 | -116.51211 | 439 ft | 0 kts | 322° |
| 2026-05-07 00:42 | 33.83247 | -116.51212 | 437 ft | 8 kts | 7° |
| 2026-05-07 00:42 | 33.83299 | -116.51224 | 444 ft | 6 kts | 271° |
| 2026-05-07 00:42 | 33.83232 | -116.51207 | 440 ft | 21 kts | 153° |
| 2026-05-07 00:43 | 33.83043 | -116.51050 | 428 ft | 42 kts | 144° |
| 2026-05-07 00:43 | 33.82811 | -116.50833 | 435 ft | 42 kts | 140° |
| 2026-05-07 00:43 | 33.82573 | -116.50621 | 420 ft | 43 kts | 144° |
| 2026-05-07 00:43 | 33.82330 | -116.50405 | 413 ft | 37 kts | 143° |
| 2026-05-07 00:44 | 33.82204 | -116.50292 | 414 ft | 23 kts | 143° |
| 2026-05-07 00:44 | 33.82069 | -116.50170 | 408 ft | 26 kts | 143° |
| 2026-05-07 00:44 | 33.81928 | -116.50043 | 406 ft | 20 kts | 140° |
| 2026-05-07 00:44 | 33.81856 | -116.49919 | 403 ft | 15 kts | 75° |
| 2026-05-07 00:45 | 33.81890 | -116.49833 | 402 ft | 11 kts | 21° |
| 2026-05-07 00:45 | 33.81935 | -116.49847 | 400 ft | 0 kts | 326° |
| 2026-05-07 00:45 | 33.81949 | -116.49859 | 403 ft | 22 kts | 325° |
| 2026-05-07 00:45 | 33.82303 | -116.50176 | 409 ft | 99 kts | 323° |
| 2026-05-07 00:46 | 33.83013 | -116.50806 | 428 ft | 155 kts | 323° |
| 2026-05-07 00:46 | 33.83986 | -116.51655 | 799 ft | 173 kts | 325° |
| 2026-05-07 00:46 | 33.84927 | -116.52480 | 1609 ft | 167 kts | 324° |
| 2026-05-07 00:46 | 33.85869 | -116.53298 | 2305 ft | 169 kts | 323° |
| 2026-05-07 00:47 | 33.86882 | -116.54168 | 2664 ft | 189 kts | 323° |
| 2026-05-07 00:47 | 33.88023 | -116.55141 | 2947 ft | 214 kts | 324° |
| 2026-05-07 00:47 | 33.89308 | -116.56228 | 3354 ft | 236 kts | 325° |
| 2026-05-07 00:47 | 33.90859 | -116.56939 | 4077 ft | 247 kts | 358° |
| 2026-05-07 00:48 | 33.92567 | -116.56436 | 4641 ft | 266 kts | 25° |
| 2026-05-07 00:48 | 33.94072 | -116.55095 | 5482 ft | 271 kts | 41° |
| 2026-05-07 00:48 | 33.95318 | -116.53383 | 6454 ft | 276 kts | 59° |
| 2026-05-07 00:48 | 33.95977 | -116.51206 | 7387 ft | 280 kts | 77° |
| 2026-05-07 00:49 | 33.96138 | -116.48858 | 8342 ft | 284 kts | 90° |
| 2026-05-07 00:49 | 33.95810 | -116.46496 | 9245 ft | 289 kts | 100° |
| 2026-05-07 00:49 | 33.95322 | -116.44137 | 10109 ft | 293 kts | 104° |
| 2026-05-07 00:49 | 33.94479 | -116.41861 | 10818 ft | 307 kts | 117° |
| 2026-05-07 00:50 | 33.93080 | -116.39772 | 11083 ft | 336 kts | 134° |
| 2026-05-07 00:50 | 33.91281 | -116.37847 | 11483 ft | 353 kts | 135° |
| 2026-05-07 00:50 | 33.89422 | -116.35877 | 12201 ft | 358 kts | 135° |
| 2026-05-07 00:50 | 33.87546 | -116.33886 | 12988 ft | 361 kts | 134° |
| 2026-05-07 00:51 | 33.85660 | -116.31877 | 13782 ft | 363 kts | 134° |
| 2026-05-07 00:51 | 33.83763 | -116.29847 | 14472 ft | 366 kts | 134° |
| 2026-05-07 00:51 | 33.81856 | -116.27798 | 14868 ft | 369 kts | 133° |
| 2026-05-07 00:51 | 33.80146 | -116.25527 | 14994 ft | 364 kts | 122° |
| 2026-05-07 00:52 | 33.78857 | -116.22916 | 15190 ft | 363 kts | 110° |
| 2026-05-07 00:52 | 33.77996 | -116.20119 | 15889 ft | 362 kts | 105° |
| 2026-05-07 00:52 | 33.77169 | -116.17205 | 16579 ft | 365 kts | 105° |
| 2026-05-07 00:52 | 33.76344 | -116.14341 | 17217 ft | 369 kts | 105° |
| 2026-05-07 00:53 | 33.75497 | -116.11414 | 17859 ft | 373 kts | 105° |
| 2026-05-07 00:53 | 33.74640 | -116.08455 | 18430 ft | 377 kts | 105° |
| 2026-05-07 00:53 | 33.73776 | -116.05461 | 18849 ft | 380 kts | 105° |
| 2026-05-07 00:53 | 33.72911 | -116.02454 | 18953 ft | 381 kts | 105° |
| 2026-05-07 00:54 | 33.72045 | -115.99447 | 18951 ft | 379 kts | 105° |
| 2026-05-07 00:54 | 33.71180 | -115.96456 | 18952 ft | 380 kts | 105° |
| 2026-05-07 00:54 | 33.70391 | -115.93439 | 18963 ft | 377 kts | 99° |
| 2026-05-07 00:54 | 33.70018 | -115.90325 | 19244 ft | 378 kts | 91° |
| 2026-05-07 00:55 | 33.69768 | -115.87178 | 19821 ft | 380 kts | 92° |
| 2026-05-07 00:55 | 33.69497 | -115.84002 | 20322 ft | 385 kts | 92° |
| 2026-05-07 00:55 | 33.69213 | -115.80799 | 20886 ft | 387 kts | 92° |
| 2026-05-07 00:55 | 33.68924 | -115.77568 | 21467 ft | 390 kts | 92° |
| 2026-05-07 00:56 | 33.68729 | -115.75383 | 21854 ft | 391 kts | 92° |
| 2026-05-07 00:56 | 33.68438 | -115.72124 | 22403 ft | 394 kts | 92° |
| 2026-05-07 00:56 | 33.68148 | -115.68879 | 22921 ft | 397 kts | 92° |
| 2026-05-07 00:56 | 33.67861 | -115.65664 | 23428 ft | 400 kts | 92° |
| 2026-05-07 00:57 | 33.67561 | -115.62291 | 23876 ft | 403 kts | 92° |
| 2026-05-07 00:57 | 33.67266 | -115.58979 | 24306 ft | 405 kts | 92° |
| 2026-05-07 00:57 | 33.66964 | -115.55569 | 24746 ft | 406 kts | 92° |
| 2026-05-07 00:57 | 33.66667 | -115.52236 | 25167 ft | 408 kts | 92° |
| 2026-05-07 00:58 | 33.66363 | -115.48839 | 25580 ft | 409 kts | 92° |
| 2026-05-07 00:58 | 33.66057 | -115.45439 | 25974 ft | 411 kts | 92° |
| 2026-05-07 00:58 | 33.65746 | -115.42024 | 26424 ft | 412 kts | 92° |
| 2026-05-07 00:58 | 33.65433 | -115.38595 | 26835 ft | 414 kts | 92° |
| 2026-05-07 00:59 | 33.64807 | -115.31708 | 27646 ft | 416 kts | 92° |
| 2026-05-07 00:59 | 33.64494 | -115.28250 | 28067 ft | 417 kts | 92° |
| 2026-05-07 00:59 | 33.64179 | -115.24793 | 28467 ft | 418 kts | 92° |
| 2026-05-07 01:00 | 33.63860 | -115.21322 | 28822 ft | 419 kts | 92° |
| 2026-05-07 01:00 | 33.63537 | -115.17841 | 29182 ft | 420 kts | 92° |
| 2026-05-07 01:00 | 33.63213 | -115.14352 | 29506 ft | 421 kts | 92° |
| 2026-05-07 01:00 | 33.62888 | -115.10854 | 29830 ft | 423 kts | 92° |
| 2026-05-07 01:01 | 33.62562 | -115.07339 | 30116 ft | 424 kts | 92° |
| 2026-05-07 01:01 | 33.62234 | -115.03817 | 30354 ft | 426 kts | 92° |
| 2026-05-07 01:01 | 33.61947 | -115.00748 | 30564 ft | 427 kts | 92° |
| 2026-05-07 01:01 | 33.61614 | -114.97215 | 30863 ft | 425 kts | 92° |
| 2026-05-07 01:02 | 33.61283 | -114.93690 | 31225 ft | 423 kts | 92° |
| 2026-05-07 01:02 | 33.60955 | -114.90240 | 31573 ft | 421 kts | 92° |
| 2026-05-07 01:02 | 33.60623 | -114.86756 | 31881 ft | 420 kts | 91° |
| 2026-05-07 01:03 | 33.59958 | -114.79808 | 31973 ft | 418 kts | 91° |
| 2026-05-07 01:03 | 33.59304 | -114.72878 | 31971 ft | 418 kts | 91° |
| 2026-05-07 01:03 | 33.58787 | -114.69433 | 31971 ft | 425 kts | 102° |
| 2026-05-07 01:04 | 33.57802 | -114.66073 | 31969 ft | 427 kts | 104° |
| 2026-05-07 01:04 | 33.55776 | -114.59370 | 31969 ft | 427 kts | 104° |
| 2026-05-07 01:05 | 33.53844 | -114.52649 | 31968 ft | 422 kts | 97° |
| 2026-05-07 01:05 | 33.53490 | -114.45772 | 31966 ft | 411 kts | 81° |
| 2026-05-07 01:06 | 33.54083 | -114.38959 | 31962 ft | 411 kts | 80° |
| 2026-05-07 01:06 | 33.54709 | -114.32144 | 31964 ft | 411 kts | 81° |
| 2026-05-07 01:07 | 33.55340 | -114.25338 | 31964 ft | 411 kts | 80° |
| 2026-05-07 01:07 | 33.55965 | -114.18528 | 31964 ft | 411 kts | 80° |
| 2026-05-07 01:08 | 33.56595 | -114.11714 | 31963 ft | 411 kts | 80° |
| 2026-05-07 01:08 | 33.56588 | -114.04851 | 31968 ft | 419 kts | 95° |
| 2026-05-07 01:09 | 33.55612 | -113.97933 | 31991 ft | 422 kts | 95° |
| 2026-05-07 01:09 | 33.55109 | -113.94463 | 32290 ft | 422 kts | 95° |
| 2026-05-07 01:09 | 33.54604 | -113.90992 | 32619 ft | 421 kts | 95° |
| 2026-05-07 01:09 | 33.54105 | -113.87586 | 32938 ft | 421 kts | 95° |
| 2026-05-07 01:10 | 33.53602 | -113.84137 | 33243 ft | 420 kts | 95° |
| 2026-05-07 01:10 | 33.53099 | -113.80686 | 33538 ft | 420 kts | 95° |
| 2026-05-07 01:10 | 33.52598 | -113.77241 | 33855 ft | 419 kts | 95° |
| 2026-05-07 01:10 | 33.52096 | -113.73799 | 34134 ft | 419 kts | 95° |
| 2026-05-07 01:11 | 33.51587 | -113.70309 | 34345 ft | 421 kts | 95° |
| 2026-05-07 01:11 | 33.51088 | -113.66891 | 34556 ft | 422 kts | 95° |
| 2026-05-07 01:11 | 33.50575 | -113.63371 | 34771 ft | 423 kts | 96° |
| 2026-05-07 01:11 | 33.50074 | -113.59936 | 34973 ft | 425 kts | 96° |
| 2026-05-07 01:12 | 33.49555 | -113.56406 | 35176 ft | 426 kts | 96° |
| 2026-05-07 01:12 | 33.49047 | -113.52959 | 35383 ft | 426 kts | 96° |
| 2026-05-07 01:12 | 33.48528 | -113.49453 | 35562 ft | 427 kts | 96° |
| 2026-05-07 01:12 | 33.48009 | -113.45942 | 35751 ft | 428 kts | 96° |
| 2026-05-07 01:13 | 33.47488 | -113.42428 | 35930 ft | 429 kts | 97° |
| 2026-05-07 01:13 | 33.46962 | -113.38896 | 36060 ft | 432 kts | 97° |
| 2026-05-07 01:13 | 33.46422 | -113.35342 | 36195 ft | 435 kts | 100° |
| 2026-05-07 01:13 | 33.45492 | -113.31879 | 36324 ft | 441 kts | 112° |
| 2026-05-07 01:14 | 33.43896 | -113.28725 | 36450 ft | 447 kts | 127° |
| 2026-05-07 01:14 | 33.41842 | -113.25898 | 36582 ft | 451 kts | 129° |
| 2026-05-07 01:14 | 33.39727 | -113.23125 | 36726 ft | 452 kts | 130° |
| 2026-05-07 01:14 | 33.37570 | -113.20375 | 36898 ft | 453 kts | 131° |
| 2026-05-07 01:15 | 33.35396 | -113.17646 | 36950 ft | 454 kts | 131° |
| 2026-05-07 01:15 | 33.31040 | -113.12191 | 36953 ft | 453 kts | 131° |
| 2026-05-07 01:16 | 33.26708 | -113.06712 | 36953 ft | 454 kts | 133° |
| 2026-05-07 01:16 | 33.22381 | -113.01200 | 36956 ft | 454 kts | 133° |
| 2026-05-07 01:17 | 33.18057 | -112.95702 | 36950 ft | 454 kts | 133° |
| 2026-05-07 01:17 | 33.13715 | -112.90212 | 36955 ft | 454 kts | 133° |
| 2026-05-07 01:18 | 33.09372 | -112.84735 | 36950 ft | 454 kts | 133° |
| 2026-05-07 01:18 | 33.05057 | -112.79295 | 36954 ft | 454 kts | 134° |
| 2026-05-07 01:19 | 33.00716 | -112.73819 | 36968 ft | 454 kts | 135° |
| 2026-05-07 01:19 | 32.96935 | -112.67793 | 36967 ft | 457 kts | 118° |
| 2026-05-07 01:20 | 32.94999 | -112.60575 | 36749 ft | 461 kts | 98° |
| 2026-05-07 01:20 | 32.94654 | -112.56780 | 36494 ft | 462 kts | 97° |
| 2026-05-07 01:20 | 32.94326 | -112.52978 | 36241 ft | 461 kts | 97° |
| 2026-05-07 01:20 | 32.93996 | -112.49176 | 35494 ft | 463 kts | 97° |
| 2026-05-07 01:21 | 32.93657 | -112.45342 | 34540 ft | 467 kts | 97° |
| 2026-05-07 01:21 | 32.93311 | -112.41496 | 33662 ft | 469 kts | 97° |
| 2026-05-07 01:21 | 32.92959 | -112.37630 | 32596 ft | 471 kts | 97° |
| 2026-05-07 01:21 | 32.92603 | -112.33750 | 31509 ft | 472 kts | 95° |
| 2026-05-07 01:22 | 32.92245 | -112.29879 | 30514 ft | 469 kts | 96° |
| 2026-05-07 01:22 | 32.91887 | -112.26039 | 29785 ft | 462 kts | 96° |
| 2026-05-07 01:22 | 32.91535 | -112.22266 | 29057 ft | 455 kts | 96° |
| 2026-05-07 01:22 | 32.91190 | -112.18562 | 28366 ft | 447 kts | 95° |
| 2026-05-07 01:23 | 32.90850 | -112.14908 | 27692 ft | 440 kts | 95° |
| 2026-05-07 01:23 | 32.90514 | -112.11310 | 27031 ft | 435 kts | 96° |
| 2026-05-07 01:23 | 32.90180 | -112.07757 | 26395 ft | 430 kts | 96° |
| 2026-05-07 01:23 | 32.89849 | -112.04247 | 25745 ft | 425 kts | 96° |
| 2026-05-07 01:24 | 32.89519 | -112.00757 | 25116 ft | 421 kts | 95° |
| 2026-05-07 01:24 | 32.89183 | -111.97352 | 24494 ft | 417 kts | 98° |
| 2026-05-07 01:24 | 32.88437 | -111.94037 | 23896 ft | 415 kts | 110° |
| 2026-05-07 01:24 | 32.87115 | -111.90998 | 23237 ft | 414 kts | 122° |
| 2026-05-07 01:25 | 32.85273 | -111.88377 | 22621 ft | 413 kts | 134° |
| 2026-05-07 01:25 | 32.83030 | -111.86268 | 22071 ft | 410 kts | 143° |
| 2026-05-07 01:25 | 32.80700 | -111.84346 | 21514 ft | 405 kts | 143° |
| 2026-05-07 01:25 | 32.78400 | -111.82447 | 20992 ft | 401 kts | 143° |
| 2026-05-07 01:26 | 32.76121 | -111.80563 | 20479 ft | 397 kts | 144° |
| 2026-05-07 01:26 | 32.73860 | -111.78690 | 19939 ft | 395 kts | 146° |
| 2026-05-07 01:26 | 32.71613 | -111.76825 | 19407 ft | 393 kts | 145° |
| 2026-05-07 01:26 | 32.69381 | -111.74974 | 18882 ft | 391 kts | 146° |
| 2026-05-07 01:27 | 32.67151 | -111.73131 | 18336 ft | 390 kts | 146° |
| 2026-05-07 01:27 | 32.64921 | -111.71291 | 17720 ft | 389 kts | 146° |
| 2026-05-07 01:27 | 32.62706 | -111.69466 | 17196 ft | 386 kts | 145° |
| 2026-05-07 01:27 | 32.60506 | -111.67655 | 16581 ft | 385 kts | 145° |
| 2026-05-07 01:28 | 32.58307 | -111.65848 | 16016 ft | 383 kts | 145° |
| 2026-05-07 01:28 | 32.56136 | -111.64027 | 15457 ft | 381 kts | 141° |
| 2026-05-07 01:28 | 32.54246 | -111.61856 | 14915 ft | 377 kts | 129° |
| 2026-05-07 01:28 | 32.52673 | -111.59390 | 14381 ft | 374 kts | 126° |
| 2026-05-07 01:29 | 32.51135 | -111.56935 | 14044 ft | 366 kts | 125° |
| 2026-05-07 01:29 | 32.49801 | -111.54491 | 13969 ft | 350 kts | 116° |
| 2026-05-07 01:29 | 32.48916 | -111.51877 | 13855 ft | 335 kts | 106° |
| 2026-05-07 01:29 | 32.48263 | -111.49280 | 13737 ft | 323 kts | 106° |
| 2026-05-07 01:30 | 32.47627 | -111.46777 | 13609 ft | 312 kts | 106° |
| 2026-05-07 01:30 | 32.47008 | -111.44358 | 13448 ft | 303 kts | 106° |
| 2026-05-07 01:30 | 32.46299 | -111.42040 | 13158 ft | 299 kts | 118° |
| 2026-05-07 01:30 | 32.45022 | -111.40099 | 12781 ft | 299 kts | 131° |
| 2026-05-07 01:31 | 32.43590 | -111.38316 | 12423 ft | 298 kts | 132° |
| 2026-05-07 01:31 | 32.42154 | -111.36558 | 12069 ft | 296 kts | 133° |
| 2026-05-07 01:31 | 32.40682 | -111.34861 | 11682 ft | 296 kts | 140° |
| 2026-05-07 01:31 | 32.39018 | -111.33439 | 11312 ft | 295 kts | 143° |
| 2026-05-07 01:32 | 32.37352 | -111.32029 | 11198 ft | 294 kts | 142° |
| 2026-05-07 01:32 | 32.35685 | -111.30621 | 11135 ft | 295 kts | 142° |
| 2026-05-07 01:32 | 32.34026 | -111.29218 | 11053 ft | 290 kts | 142° |
| 2026-05-07 01:32 | 32.32418 | -111.27860 | 10990 ft | 278 kts | 143° |
| 2026-05-07 01:33 | 32.30876 | -111.26560 | 10931 ft | 265 kts | 143° |
| 2026-05-07 01:33 | 32.29406 | -111.25319 | 10878 ft | 253 kts | 142° |
| 2026-05-07 01:33 | 32.28002 | -111.24134 | 10820 ft | 243 kts | 143° |
| 2026-05-07 01:33 | 32.26633 | -111.22979 | 10769 ft | 240 kts | 142° |
| 2026-05-07 01:34 | 32.25299 | -111.21851 | 10732 ft | 239 kts | 142° |
| 2026-05-07 01:34 | 32.23951 | -111.20714 | 10683 ft | 237 kts | 143° |
| 2026-05-07 01:34 | 32.22587 | -111.19564 | 10637 ft | 238 kts | 142° |
| 2026-05-07 01:34 | 32.21261 | -111.18449 | 10587 ft | 237 kts | 142° |
| 2026-05-07 01:35 | 32.19918 | -111.17321 | 10519 ft | 236 kts | 142° |
| 2026-05-07 01:35 | 32.18582 | -111.16198 | 10482 ft | 236 kts | 143° |
| 2026-05-07 01:35 | 32.17239 | -111.15072 | 10431 ft | 238 kts | 142° |
| 2026-05-07 01:35 | 32.15893 | -111.13942 | 10380 ft | 237 kts | 143° |
| 2026-05-07 01:36 | 32.14553 | -111.12817 | 10326 ft | 236 kts | 144° |
| 2026-05-07 01:36 | 32.13211 | -111.11690 | 10283 ft | 237 kts | 145° |
| 2026-05-07 01:36 | 32.11878 | -111.10570 | 10254 ft | 233 kts | 145° |
| 2026-05-07 01:36 | 32.10564 | -111.09466 | 10180 ft | 232 kts | 145° |
| 2026-05-07 01:37 | 32.09253 | -111.08370 | 9941 ft | 230 kts | 145° |
| 2026-05-07 01:37 | 32.07954 | -111.07284 | 9813 ft | 228 kts | 145° |
| 2026-05-07 01:37 | 32.06759 | -111.06284 | 9716 ft | 228 kts | 145° |
| 2026-05-07 01:37 | 32.05468 | -111.05202 | 9578 ft | 228 kts | 144° |
| 2026-05-07 01:38 | 32.04178 | -111.04122 | 9486 ft | 226 kts | 144° |
| 2026-05-07 01:38 | 32.02882 | -111.03034 | 9270 ft | 229 kts | 144° |
| 2026-05-07 01:38 | 32.01590 | -111.01949 | 9016 ft | 226 kts | 144° |
| 2026-05-07 01:38 | 32.00305 | -111.00874 | 8756 ft | 228 kts | 144° |
| 2026-05-07 01:39 | 31.99010 | -110.99790 | 8507 ft | 229 kts | 144° |
| 2026-05-07 01:39 | 31.97704 | -110.98695 | 8254 ft | 231 kts | 144° |
| 2026-05-07 01:39 | 31.96395 | -110.97601 | 7995 ft | 231 kts | 143° |
| 2026-05-07 01:39 | 31.95087 | -110.96510 | 7748 ft | 231 kts | 144° |
| 2026-05-07 01:40 | 31.94216 | -110.95784 | 7586 ft | 232 kts | 143° |
| 2026-05-07 01:40 | 31.92897 | -110.94686 | 7340 ft | 233 kts | 143° |
| 2026-05-07 01:40 | 31.91569 | -110.93581 | 7095 ft | 234 kts | 143° |
| 2026-05-07 01:40 | 31.90252 | -110.92462 | 6982 ft | 234 kts | 136° |
| 2026-05-07 01:41 | 31.89252 | -110.91046 | 6966 ft | 230 kts | 116° |
| 2026-05-07 01:41 | 31.88728 | -110.89289 | 6969 ft | 226 kts | 94° |
| 2026-05-07 01:41 | 31.88746 | -110.87471 | 6965 ft | 222 kts | 75° |
| 2026-05-07 01:41 | 31.89280 | -110.85782 | 6962 ft | 221 kts | 56° |
| 2026-05-07 01:42 | 31.90251 | -110.84393 | 6961 ft | 220 kts | 43° |
| 2026-05-07 01:42 | 31.91334 | -110.83135 | 6764 ft | 220 kts | 44° |
| 2026-05-07 01:42 | 31.92411 | -110.81867 | 6549 ft | 219 kts | 44° |
| 2026-05-07 01:42 | 31.93513 | -110.80644 | 6289 ft | 217 kts | 36° |
| 2026-05-07 01:43 | 31.94816 | -110.79770 | 6126 ft | 218 kts | 20° |
| 2026-05-07 01:43 | 31.96279 | -110.79340 | 5968 ft | 215 kts | 4° |
| 2026-05-07 01:43 | 31.97746 | -110.79385 | 5780 ft | 208 kts | 350° |
| 2026-05-07 01:43 | 31.99109 | -110.79865 | 5568 ft | 203 kts | 335° |
| 2026-05-07 01:44 | 32.00301 | -110.80726 | 5330 ft | 200 kts | 321° |
| 2026-05-07 01:44 | 32.01306 | -110.81856 | 5078 ft | 200 kts | 315° |
| 2026-05-07 01:44 | 32.02281 | -110.83013 | 4859 ft | 197 kts | 316° |
| 2026-05-07 01:44 | 32.03244 | -110.84148 | 4572 ft | 192 kts | 316° |
| 2026-05-07 01:45 | 32.04159 | -110.85217 | 4332 ft | 178 kts | 317° |
| 2026-05-07 01:45 | 32.05015 | -110.86210 | 4108 ft | 168 kts | 314° |
| 2026-05-07 01:45 | 32.05818 | -110.87142 | 3884 ft | 157 kts | 313° |
| 2026-05-07 01:45 | 32.06574 | -110.88024 | 3666 ft | 149 kts | 314° |
| 2026-05-07 01:46 | 32.07293 | -110.88866 | 3481 ft | 145 kts | 315° |
| 2026-05-07 01:46 | 32.07990 | -110.89680 | 3259 ft | 141 kts | 316° |
| 2026-05-07 01:46 | 32.08678 | -110.90487 | 3089 ft | 137 kts | 316° |
| 2026-05-07 01:46 | 32.09355 | -110.91287 | 2908 ft | 137 kts | 315° |
| 2026-05-07 01:47 | 32.10025 | -110.92072 | 2756 ft | 135 kts | 318° |
| 2026-05-07 01:47 | 32.10684 | -110.92828 | 2639 ft | 122 kts | 315° |
| 2026-05-07 01:47 | 32.11157 | -110.93399 | 2620 ft | 72 kts | 315° |
| 2026-05-07 01:47 | 32.11371 | -110.93655 | 2612 ft | 20 kts | 313° |
| 2026-05-07 01:48 | 32.11472 | -110.93658 | 2608 ft | 18 kts | 43° |
| 2026-05-07 01:48 | 32.11491 | -110.93638 | 2608 ft | 0 kts | 43° |
| 2026-05-07 01:50 | 32.11494 | -110.93635 | 2608 ft | 1 kts | 43° |
| 2026-05-07 01:50 | 32.11513 | -110.93619 | 2607 ft | 9 kts | 27° |
| 2026-05-07 01:50 | 32.11588 | -110.93667 | 2603 ft | 15 kts | 317° |
| 2026-05-07 01:51 | 32.11668 | -110.93763 | 2600 ft | 17 kts | 314° |
| 2026-05-07 01:51 | 32.11747 | -110.93809 | 2594 ft | 10 kts | 19° |
| 2026-05-07 01:51 | 32.11823 | -110.93819 | 2588 ft | 10 kts | 340° |
| 2026-05-07 01:51 | 32.11859 | -110.93809 | 2593 ft | 0 kts | 51° |
| 2026-05-07 01:52 | 32.11865 | -110.93798 | 2591 ft | 6 kts | 55° |
| 2026-05-07 01:52 | 32.11877 | -110.93773 | 2589 ft | 3 kts | 61° |
| 2026-05-07 01:53 | 32.11880 | -110.93767 | 2591 ft | 0 kts | 62° |